Charter Quote
Worldwide +1-877-727-2538 Call
Select Language Lang
SAFETY RELIABILITY EXPERIENCE

Private Jet Charter Services - Liuting (ZSQD)

Paramount Business Jets offers private jet charter flights and luxury airliner charters to and from Liuting.

AIRPORT INFORMATION
ICAOZSQD
LOCATIONQingdao, China
FACILITY TYPEAIRPORT

At Paramount Business Jets you can hire chartered private jets to and from Liuting with as little as 4 hours of notice. All flights booked via Paramount Business Jets are operated by certified direct air carriers that meet and exceed the FAA part 135 and 121 protocol or a foreign equivalent safety authority. Furthermore, Paramount Business Jets subscribes to ARGUS for their third party safety checks of operators, aircraft, and crews prior each and every flight to and from Liuting and worldwide.

  • Quote a trip using Liuting or call us 24/7 - 365 days a year at +1-877-727-2538.
Questions? Call +1-877-727-2538

METAR Weather Data at Liuting, ZSQD

STATIONZSQD
OBSERVEDTue Jul 16, 03:00 UTC
NOWTue Jul 16, 04:00 UTC
AGE60 min ago
WINDSSE at 13 mph
VISIBILITY8 miles
CONDITIONShaze
CLOUDSscattered clouds
TEMP86°F (30°C)
DEWPT75°F (24°C)
HUMIDITY70%
HEAT INDEX95°F (35°C)
BAROMETER1008 hPa (29.77 in Hg)
METARZSQD 160300Z 15006MPS 5000 HZ SCT030 30/24 Q1008 NOSIG

Call us on +1-877-727-2538 (24 Hours) to Hire a Private Jet or Get a Quick Quote.

Find Airports Near any Location

Processing
...